sensor_id;sensor_type;location;lat;lon;timestamp;P1;durP1;ratioP1;P2;durP2;ratioP2
59442;SDS011;45247;47.466;19.004;2024-03-23T00:52:07;18.50;;;11.18;;
59442;SDS011;45247;47.466;19.004;2024-03-23T00:54:35;20.67;;;10.90;;
59442;SDS011;45247;47.466;19.004;2024-03-23T00:57:01;20.63;;;11.65;;
59442;SDS011;45247;47.466;19.004;2024-03-23T00:59:28;23.73;;;13.63;;
59442;SDS011;45247;47.466;19.004;2024-03-23T01:01:55;19.00;;;11.32;;
59442;SDS011;45247;47.466;19.004;2024-03-23T01:04:23;20.23;;;11.13;;
59442;SDS011;45247;47.466;19.004;2024-03-23T01:06:49;19.83;;;10.52;;
59442;SDS011;45247;47.466;19.004;2024-03-23T01:09:16;19.55;;;10.43;;
59442;SDS011;45247;47.466;19.004;2024-03-23T01:11:42;18.52;;;10.40;;
59442;SDS011;45247;47.466;19.004;2024-03-23T01:14:09;15.90;;;9.77;;
59442;SDS011;45247;47.466;19.004;2024-03-23T01:16:35;17.08;;;9.68;;
59442;SDS011;45247;47.466;19.004;2024-03-23T01:19:04;18.42;;;10.30;;
59442;SDS011;45247;47.466;19.004;2024-03-23T01:21:31;19.48;;;10.18;;
59442;SDS011;45247;47.466;19.004;2024-03-23T01:23:58;15.75;;;9.70;;
59442;SDS011;45247;47.466;19.004;2024-03-23T01:26:24;23.77;;;11.23;;
59442;SDS011;45247;47.466;19.004;2024-03-23T01:28:52;26.58;;;11.90;;
59442;SDS011;45247;47.466;19.004;2024-03-23T01:31:18;17.58;;;10.98;;
59442;SDS011;45247;47.466;19.004;2024-03-23T01:33:45;24.15;;;12.55;;
59442;SDS011;45247;47.466;19.004;2024-03-23T01:36:14;21.15;;;12.23;;
59442;SDS011;45247;47.466;19.004;2024-03-23T01:38:41;19.70;;;12.00;;
59442;SDS011;45247;47.466;19.004;2024-03-23T01:41:07;26.27;;;12.80;;
59442;SDS011;45247;47.466;19.004;2024-03-23T01:43:34;21.23;;;11.82;;
59442;SDS011;45247;47.466;19.004;2024-03-23T01:46:01;26.58;;;13.52;;
59442;SDS011;45247;47.466;19.004;2024-03-23T01:48:28;21.88;;;13.65;;
59442;SDS011;45247;47.466;19.004;2024-03-23T01:50:54;23.17;;;12.50;;
59442;SDS011;45247;47.466;19.004;2024-03-23T01:53:23;24.38;;;13.13;;
59442;SDS011;45247;47.466;19.004;2024-03-23T01:55:49;22.65;;;12.75;;
59442;SDS011;45247;47.466;19.004;2024-03-23T01:58:17;23.13;;;13.50;;
59442;SDS011;45247;47.466;19.004;2024-03-23T02:00:43;24.67;;;13.93;;
59442;SDS011;45247;47.466;19.004;2024-03-23T02:03:21;23.65;;;13.18;;
59442;SDS011;45247;47.466;19.004;2024-03-23T02:05:48;23.38;;;14.32;;
59442;SDS011;45247;47.466;19.004;2024-03-23T02:08:16;24.85;;;13.70;;
59442;SDS011;45247;47.466;19.004;2024-03-23T02:10:45;26.08;;;13.65;;
59442;SDS011;45247;47.466;19.004;2024-03-23T02:13:13;23.48;;;13.80;;
59442;SDS011;45247;47.466;19.004;2024-03-23T02:15:41;23.35;;;13.38;;
59442;SDS011;45247;47.466;19.004;2024-03-23T02:18:07;19.23;;;12.40;;
59442;SDS011;45247;47.466;19.004;2024-03-23T02:20:35;20.27;;;12.57;;
59442;SDS011;45247;47.466;19.004;2024-03-23T02:23:02;20.63;;;11.40;;
59442;SDS011;45247;47.466;19.004;2024-03-23T02:25:31;17.17;;;10.95;;
59442;SDS011;45247;47.466;19.004;2024-03-23T02:27:57;20.65;;;12.50;;
59442;SDS011;45247;47.466;19.004;2024-03-23T02:30:25;22.33;;;13.60;;
59442;SDS011;45247;47.466;19.004;2024-03-23T02:32:51;20.77;;;12.30;;
59442;SDS011;45247;47.466;19.004;2024-03-23T02:35:19;21.17;;;11.55;;
59442;SDS011;45247;47.466;19.004;2024-03-23T02:37:46;21.10;;;11.30;;
59442;SDS011;45247;47.466;19.004;2024-03-23T02:40:15;20.88;;;11.65;;
59442;SDS011;45247;47.466;19.004;2024-03-23T02:42:41;19.55;;;11.68;;
59442;SDS011;45247;47.466;19.004;2024-03-23T02:45:08;23.48;;;13.02;;
59442;SDS011;45247;47.466;19.004;2024-03-23T02:47:35;22.60;;;11.30;;
59442;SDS011;45247;47.466;19.004;2024-03-23T02:50:02;26.25;;;12.82;;
59442;SDS011;45247;47.466;19.004;2024-03-23T02:52:29;22.83;;;13.07;;
59442;SDS011;45247;47.466;19.004;2024-03-23T02:54:57;25.23;;;13.82;;
59442;SDS011;45247;47.466;19.004;2024-03-23T02:57:24;25.15;;;14.38;;
59442;SDS011;45247;47.466;19.004;2024-03-23T02:59:52;27.08;;;14.95;;
59442;SDS011;45247;47.466;19.004;2024-03-23T03:02:18;29.95;;;15.68;;
59442;SDS011;45247;47.466;19.004;2024-03-23T03:04:46;25.88;;;15.93;;
59442;SDS011;45247;47.466;19.004;2024-03-23T03:07:13;26.27;;;14.73;;
59442;SDS011;45247;47.466;19.004;2024-03-23T03:09:41;27.27;;;15.40;;
59442;SDS011;45247;47.466;19.004;2024-03-23T03:12:07;32.95;;;18.15;;
59442;SDS011;45247;47.466;19.004;2024-03-23T03:14:36;31.67;;;16.67;;
59442;SDS011;45247;47.466;19.004;2024-03-23T03:17:02;28.17;;;16.35;;
59442;SDS011;45247;47.466;19.004;2024-03-23T03:19:29;31.88;;;16.80;;
59442;SDS011;45247;47.466;19.004;2024-03-23T03:21:56;26.42;;;15.23;;
59442;SDS011;45247;47.466;19.004;2024-03-23T03:24:23;25.08;;;14.23;;
59442;SDS011;45247;47.466;19.004;2024-03-23T03:26:49;25.13;;;14.52;;
59442;SDS011;45247;47.466;19.004;2024-03-23T03:29:16;23.40;;;14.10;;
59442;SDS011;45247;47.466;19.004;2024-03-23T03:31:44;26.63;;;15.55;;
59442;SDS011;45247;47.466;19.004;2024-03-23T03:34:11;29.60;;;16.65;;
59442;SDS011;45247;47.466;19.004;2024-03-23T03:36:37;27.85;;;15.35;;
59442;SDS011;45247;47.466;19.004;2024-03-23T03:39:04;26.27;;;15.20;;
59442;SDS011;45247;47.466;19.004;2024-03-23T03:41:32;25.83;;;14.27;;
59442;SDS011;45247;47.466;19.004;2024-03-23T03:43:59;27.17;;;15.65;;
59442;SDS011;45247;47.466;19.004;2024-03-23T03:46:27;26.30;;;15.80;;
59442;SDS011;45247;47.466;19.004;2024-03-23T03:48:57;22.88;;;14.35;;
59442;SDS011;45247;47.466;19.004;2024-03-23T03:51:23;34.90;;;18.55;;
59442;SDS011;45247;47.466;19.004;2024-03-23T03:53:50;30.63;;;16.40;;
59442;SDS011;45247;47.466;19.004;2024-03-23T03:56:16;25.67;;;16.08;;
59442;SDS011;45247;47.466;19.004;2024-03-23T03:58:44;26.50;;;15.52;;
59442;SDS011;45247;47.466;19.004;2024-03-23T04:01:10;23.50;;;15.25;;
59442;SDS011;45247;47.466;19.004;2024-03-23T04:03:37;25.27;;;15.73;;
59442;SDS011;45247;47.466;19.004;2024-03-23T04:06:06;24.52;;;15.57;;
59442;SDS011;45247;47.466;19.004;2024-03-23T04:08:33;24.98;;;14.32;;
59442;SDS011;45247;47.466;19.004;2024-03-23T04:11:00;27.02;;;16.38;;
59442;SDS011;45247;47.466;19.004;2024-03-23T04:13:27;26.40;;;14.80;;
59442;SDS011;45247;47.466;19.004;2024-03-23T04:15:53;28.00;;;15.25;;
59442;SDS011;45247;47.466;19.004;2024-03-23T04:18:21;29.40;;;16.35;;
59442;SDS011;45247;47.466;19.004;2024-03-23T04:20:47;25.40;;;15.48;;
59442;SDS011;45247;47.466;19.004;2024-03-23T04:23:16;27.27;;;15.52;;
59442;SDS011;45247;47.466;19.004;2024-03-23T04:25:42;29.73;;;16.55;;
59442;SDS011;45247;47.466;19.004;2024-03-23T04:28:10;24.83;;;14.77;;
59442;SDS011;45247;47.466;19.004;2024-03-23T04:30:36;27.88;;;15.98;;
59442;SDS011;45247;47.466;19.004;2024-03-23T04:33:03;26.33;;;14.30;;
59442;SDS011;45247;47.466;19.004;2024-03-23T04:35:30;25.85;;;14.68;;
59442;SDS011;45247;47.466;19.004;2024-03-23T04:37:57;22.98;;;13.40;;
59442;SDS011;45247;47.466;19.004;2024-03-23T04:40:26;25.20;;;14.00;;
59442;SDS011;45247;47.466;19.004;2024-03-23T04:42:53;23.45;;;14.00;;
59442;SDS011;45247;47.466;19.004;2024-03-23T04:45:20;25.63;;;14.32;;
59442;SDS011;45247;47.466;19.004;2024-03-23T04:47:47;25.17;;;13.55;;
59442;SDS011;45247;47.466;19.004;2024-03-23T04:50:15;24.98;;;13.63;;
59442;SDS011;45247;47.466;19.004;2024-03-23T04:52:42;24.63;;;13.80;;
59442;SDS011;45247;47.466;19.004;2024-03-23T04:55:09;27.48;;;15.85;;
59442;SDS011;45247;47.466;19.004;2024-03-23T04:57:38;28.33;;;15.85;;
59442;SDS011;45247;47.466;19.004;2024-03-23T05:00:05;24.80;;;14.13;;
59442;SDS011;45247;47.466;19.004;2024-03-23T05:02:42;25.90;;;14.80;;
59442;SDS011;45247;47.466;19.004;2024-03-23T05:05:09;23.60;;;14.38;;
59442;SDS011;45247;47.466;19.004;2024-03-23T05:07:36;30.67;;;15.05;;
59442;SDS011;45247;47.466;19.004;2024-03-23T05:10:03;25.58;;;16.00;;
59442;SDS011;45247;47.466;19.004;2024-03-23T05:12:31;26.60;;;15.40;;
59442;SDS011;45247;47.466;19.004;2024-03-23T05:14:58;22.75;;;13.85;;
59442;SDS011;45247;47.466;19.004;2024-03-23T05:17:25;23.60;;;13.15;;
59442;SDS011;45247;47.466;19.004;2024-03-23T05:19:51;24.52;;;14.20;;
59442;SDS011;45247;47.466;19.004;2024-03-23T05:22:18;23.20;;;13.65;;
59442;SDS011;45247;47.466;19.004;2024-03-23T05:24:44;25.55;;;15.85;;
59442;SDS011;45247;47.466;19.004;2024-03-23T05:27:12;25.85;;;14.98;;
59442;SDS011;45247;47.466;19.004;2024-03-23T05:29:38;23.77;;;15.35;;
59442;SDS011;45247;47.466;19.004;2024-03-23T05:32:06;26.40;;;16.88;;
59442;SDS011;45247;47.466;19.004;2024-03-23T05:34:33;26.55;;;16.52;;
59442;SDS011;45247;47.466;19.004;2024-03-23T05:37:00;30.60;;;16.90;;
59442;SDS011;45247;47.466;19.004;2024-03-23T05:39:26;27.33;;;15.60;;
59442;SDS011;45247;47.466;19.004;2024-03-23T05:41:53;34.42;;;17.45;;
59442;SDS011;45247;47.466;19.004;2024-03-23T05:44:19;27.60;;;17.00;;
59442;SDS011;45247;47.466;19.004;2024-03-23T05:46:46;28.80;;;17.05;;
59442;SDS011;45247;47.466;19.004;2024-03-23T05:49:15;31.02;;;19.05;;
59442;SDS011;45247;47.466;19.004;2024-03-23T05:51:43;27.63;;;16.08;;
59442;SDS011;45247;47.466;19.004;2024-03-23T05:54:09;26.80;;;17.10;;
59442;SDS011;45247;47.466;19.004;2024-03-23T05:56:36;26.55;;;16.23;;
59442;SDS011;45247;47.466;19.004;2024-03-23T05:59:02;27.50;;;16.08;;
59442;SDS011;45247;47.466;19.004;2024-03-23T06:01:29;29.52;;;16.88;;
59442;SDS011;45247;47.466;19.004;2024-03-23T06:03:58;25.58;;;16.05;;
59442;SDS011;45247;47.466;19.004;2024-03-23T06:06:28;27.80;;;15.95;;
59442;SDS011;45247;47.466;19.004;2024-03-23T06:08:55;26.20;;;16.02;;
59442;SDS011;45247;47.466;19.004;2024-03-23T06:11:22;30.25;;;16.15;;
59442;SDS011;45247;47.466;19.004;2024-03-23T06:13:48;30.15;;;16.88;;
59442;SDS011;45247;47.466;19.004;2024-03-23T06:16:16;28.20;;;16.63;;
59442;SDS011;45247;47.466;19.004;2024-03-23T06:18:42;28.10;;;17.92;;
59442;SDS011;45247;47.466;19.004;2024-03-23T06:21:12;28.13;;;16.55;;
59442;SDS011;45247;47.466;19.004;2024-03-23T06:23:41;26.60;;;16.95;;
59442;SDS011;45247;47.466;19.004;2024-03-23T06:26:13;30.77;;;17.73;;
59442;SDS011;45247;47.466;19.004;2024-03-23T06:28:39;29.75;;;16.88;;
59442;SDS011;45247;47.466;19.004;2024-03-23T06:31:08;24.98;;;16.15;;
59442;SDS011;45247;47.466;19.004;2024-03-23T06:33:34;26.65;;;16.55;;
59442;SDS011;45247;47.466;19.004;2024-03-23T06:36:02;37.05;;;18.92;;
59442;SDS011;45247;47.466;19.004;2024-03-23T06:38:28;30.38;;;19.33;;
59442;SDS011;45247;47.466;19.004;2024-03-23T06:40:57;28.08;;;18.45;;
59442;SDS011;45247;47.466;19.004;2024-03-23T06:43:23;30.50;;;17.60;;
59442;SDS011;45247;47.466;19.004;2024-03-23T06:45:53;28.90;;;18.67;;
59442;SDS011;45247;47.466;19.004;2024-03-23T06:48:19;35.55;;;20.08;;
59442;SDS011;45247;47.466;19.004;2024-03-23T06:50:46;30.52;;;18.98;;
59442;SDS011;45247;47.466;19.004;2024-03-23T06:53:13;34.65;;;19.77;;
59442;SDS011;45247;47.466;19.004;2024-03-23T06:55:40;29.88;;;19.42;;
59442;SDS011;45247;47.466;19.004;2024-03-23T06:58:08;31.40;;;19.70;;
59442;SDS011;45247;47.466;19.004;2024-03-23T07:00:35;30.35;;;19.35;;
59442;SDS011;45247;47.466;19.004;2024-03-23T07:03:01;36.97;;;20.60;;
59442;SDS011;45247;47.466;19.004;2024-03-23T07:05:29;34.05;;;19.73;;
59442;SDS011;45247;47.466;19.004;2024-03-23T07:07:55;36.83;;;20.38;;
59442;SDS011;45247;47.466;19.004;2024-03-23T07:10:22;34.50;;;17.52;;
59442;SDS011;45247;47.466;19.004;2024-03-23T07:12:48;28.77;;;17.52;;
59442;SDS011;45247;47.466;19.004;2024-03-23T07:15:17;30.67;;;18.48;;
59442;SDS011;45247;47.466;19.004;2024-03-23T07:17:46;26.58;;;17.60;;
59442;SDS011;45247;47.466;19.004;2024-03-23T07:20:14;23.83;;;16.73;;
59442;SDS011;45247;47.466;19.004;2024-03-23T07:22:41;28.48;;;17.48;;
59442;SDS011;45247;47.466;19.004;2024-03-23T07:25:09;27.45;;;15.73;;
59442;SDS011;45247;47.466;19.004;2024-03-23T07:27:35;27.55;;;18.58;;
59442;SDS011;45247;47.466;19.004;2024-03-23T07:30:02;27.52;;;18.98;;
59442;SDS011;45247;47.466;19.004;2024-03-23T07:32:30;30.95;;;18.05;;
59442;SDS011;45247;47.466;19.004;2024-03-23T07:34:57;28.85;;;19.42;;
59442;SDS011;45247;47.466;19.004;2024-03-23T07:37:23;26.25;;;17.95;;
59442;SDS011;45247;47.466;19.004;2024-03-23T07:39:51;25.73;;;18.17;;
59442;SDS011;45247;47.466;19.004;2024-03-23T07:42:17;28.10;;;17.80;;
59442;SDS011;45247;47.466;19.004;2024-03-23T07:44:44;29.00;;;19.55;;
59442;SDS011;45247;47.466;19.004;2024-03-23T07:47:12;27.42;;;17.98;;
59442;SDS011;45247;47.466;19.004;2024-03-23T07:49:40;29.92;;;18.55;;
59442;SDS011;45247;47.466;19.004;2024-03-23T07:52:07;23.48;;;15.27;;
59442;SDS011;45247;47.466;19.004;2024-03-23T07:54:34;24.05;;;15.77;;
59442;SDS011;45247;47.466;19.004;2024-03-23T07:57:00;23.80;;;15.20;;
59442;SDS011;45247;47.466;19.004;2024-03-23T07:59:27;24.65;;;15.13;;
59442;SDS011;45247;47.466;19.004;2024-03-23T08:01:57;24.75;;;15.27;;
59442;SDS011;45247;47.466;19.004;2024-03-23T08:04:24;22.70;;;14.95;;
59442;SDS011;45247;47.466;19.004;2024-03-23T08:06:52;20.92;;;13.98;;
59442;SDS011;45247;47.466;19.004;2024-03-23T08:09:19;22.98;;;15.90;;
59442;SDS011;45247;47.466;19.004;2024-03-23T08:11:45;22.92;;;15.30;;
59442;SDS011;45247;47.466;19.004;2024-03-23T08:14:14;23.23;;;15.00;;
59442;SDS011;45247;47.466;19.004;2024-03-23T08:16:40;25.42;;;16.08;;
59442;SDS011;45247;47.466;19.004;2024-03-23T08:19:13;22.13;;;14.95;;
59442;SDS011;45247;47.466;19.004;2024-03-23T08:21:40;21.77;;;15.27;;
59442;SDS011;45247;47.466;19.004;2024-03-23T08:24:09;18.88;;;13.52;;
59442;SDS011;45247;47.466;19.004;2024-03-23T08:26:35;20.40;;;14.13;;
59442;SDS011;45247;47.466;19.004;2024-03-23T08:29:03;19.98;;;14.38;;
59442;SDS011;45247;47.466;19.004;2024-03-23T08:31:30;24.70;;;15.07;;
59442;SDS011;45247;47.466;19.004;2024-03-23T08:33:57;21.35;;;14.90;;
59442;SDS011;45247;47.466;19.004;2024-03-23T08:36:23;24.83;;;15.45;;
59442;SDS011;45247;47.466;19.004;2024-03-23T08:38:52;26.58;;;17.33;;
59442;SDS011;45247;47.466;19.004;2024-03-23T08:41:21;25.10;;;15.70;;
59442;SDS011;45247;47.466;19.004;2024-03-23T08:43:49;24.02;;;15.13;;
59442;SDS011;45247;47.466;19.004;2024-03-23T08:46:15;21.02;;;14.90;;
59442;SDS011;45247;47.466;19.004;2024-03-23T08:48:43;27.08;;;16.58;;
59442;SDS011;45247;47.466;19.004;2024-03-23T08:51:12;23.58;;;16.38;;
59442;SDS011;45247;47.466;19.004;2024-03-23T08:53:40;23.63;;;15.07;;
59442;SDS011;45247;47.466;19.004;2024-03-23T08:56:07;26.27;;;17.58;;
59442;SDS011;45247;47.466;19.004;2024-03-23T08:58:38;23.38;;;15.75;;
59442;SDS011;45247;47.466;19.004;2024-03-23T09:01:05;22.10;;;14.95;;
59442;SDS011;45247;47.466;19.004;2024-03-23T09:03:34;21.13;;;14.02;;
59442;SDS011;45247;47.466;19.004;2024-03-23T09:06:01;19.27;;;13.45;;
59442;SDS011;45247;47.466;19.004;2024-03-23T09:08:28;21.45;;;12.88;;
59442;SDS011;45247;47.466;19.004;2024-03-23T09:10:56;19.08;;;12.50;;
59442;SDS011;45247;47.466;19.004;2024-03-23T09:13:23;21.13;;;13.45;;
59442;SDS011;45247;47.466;19.004;2024-03-23T09:15:51;17.92;;;11.10;;
59442;SDS011;45247;47.466;19.004;2024-03-23T09:20:49;19.60;;;11.00;;
59442;SDS011;45247;47.466;19.004;2024-03-23T09:23:16;13.38;;;9.75;;
59442;SDS011;45247;47.466;19.004;2024-03-23T09:25:42;19.15;;;10.50;;
59442;SDS011;45247;47.466;19.004;2024-03-23T09:28:19;15.75;;;10.55;;
59442;SDS011;45247;47.466;19.004;2024-03-23T09:30:46;12.75;;;9.60;;
59442;SDS011;45247;47.466;19.004;2024-03-23T09:33:16;14.20;;;8.82;;
59442;SDS011;45247;47.466;19.004;2024-03-23T09:35:43;10.25;;;8.27;;
59442;SDS011;45247;47.466;19.004;2024-03-23T09:38:11;12.15;;;8.40;;
59442;SDS011;45247;47.466;19.004;2024-03-23T09:40:40;14.52;;;9.30;;
59442;SDS011;45247;47.466;19.004;2024-03-23T09:43:09;14.32;;;7.70;;
59442;SDS011;45247;47.466;19.004;2024-03-23T09:45:36;19.63;;;7.97;;
59442;SDS011;45247;47.466;19.004;2024-03-23T09:48:06;10.73;;;7.50;;
59442;SDS011;45247;47.466;19.004;2024-03-23T09:50:37;13.88;;;6.72;;
59442;SDS011;45247;47.466;19.004;2024-03-23T09:53:05;16.45;;;7.32;;
59442;SDS011;45247;47.466;19.004;2024-03-23T09:55:32;11.50;;;6.22;;
59442;SDS011;45247;47.466;19.004;2024-03-23T09:58:03;14.75;;;6.93;;
59442;SDS011;45247;47.466;19.004;2024-03-23T10:00:32;13.45;;;6.88;;
59442;SDS011;45247;47.466;19.004;2024-03-23T10:03:01;13.70;;;6.70;;
59442;SDS011;45247;47.466;19.004;2024-03-23T10:05:28;12.25;;;6.47;;
59442;SDS011;45247;47.466;19.004;2024-03-23T10:07:58;15.20;;;6.85;;
59442;SDS011;45247;47.466;19.004;2024-03-23T10:10:24;19.50;;;7.97;;
59442;SDS011;45247;47.466;19.004;2024-03-23T10:12:52;10.93;;;6.25;;
59442;SDS011;45247;47.466;19.004;2024-03-23T10:15:18;12.50;;;6.90;;
59442;SDS011;45247;47.466;19.004;2024-03-23T10:17:48;11.15;;;6.63;;
59442;SDS011;45247;47.466;19.004;2024-03-23T10:20:18;10.82;;;6.32;;
59442;SDS011;45247;47.466;19.004;2024-03-23T10:22:47;10.63;;;5.53;;
59442;SDS011;45247;47.466;19.004;2024-03-23T10:25:15;14.57;;;5.68;;
59442;SDS011;45247;47.466;19.004;2024-03-23T10:27:43;12.52;;;5.60;;
59442;SDS011;45247;47.466;19.004;2024-03-23T10:30:09;11.48;;;5.60;;
59442;SDS011;45247;47.466;19.004;2024-03-23T10:32:38;12.60;;;5.78;;
59442;SDS011;45247;47.466;19.004;2024-03-23T10:35:14;10.50;;;5.82;;
59442;SDS011;45247;47.466;19.004;2024-03-23T10:37:42;14.02;;;6.18;;
59442;SDS011;45247;47.466;19.004;2024-03-23T10:40:09;10.27;;;5.68;;
59442;SDS011;45247;47.466;19.004;2024-03-23T10:42:40;9.65;;;5.43;;
59442;SDS011;45247;47.466;19.004;2024-03-23T10:45:06;8.95;;;5.30;;
59442;SDS011;45247;47.466;19.004;2024-03-23T10:47:35;9.15;;;5.68;;
59442;SDS011;45247;47.466;19.004;2024-03-23T10:50:02;9.90;;;5.82;;
59442;SDS011;45247;47.466;19.004;2024-03-23T10:52:30;11.75;;;5.15;;
59442;SDS011;45247;47.466;19.004;2024-03-23T10:54:57;8.00;;;4.82;;
59442;SDS011;45247;47.466;19.004;2024-03-23T10:57:26;8.25;;;4.80;;
59442;SDS011;45247;47.466;19.004;2024-03-23T10:59:58;9.80;;;4.25;;
59442;SDS011;45247;47.466;19.004;2024-03-23T11:02:26;7.38;;;4.15;;
59442;SDS011;45247;47.466;19.004;2024-03-23T11:04:52;12.30;;;4.18;;
59442;SDS011;45247;47.466;19.004;2024-03-23T11:07:29;17.95;;;5.97;;
59442;SDS011;45247;47.466;19.004;2024-03-23T11:09:57;8.57;;;4.43;;
59442;SDS011;45247;47.466;19.004;2024-03-23T11:12:25;8.07;;;3.67;;
59442;SDS011;45247;47.466;19.004;2024-03-23T11:14:53;7.35;;;4.35;;
59442;SDS011;45247;47.466;19.004;2024-03-23T11:17:24;10.45;;;4.28;;
59442;SDS011;45247;47.466;19.004;2024-03-23T11:19:54;7.07;;;3.42;;
59442;SDS011;45247;47.466;19.004;2024-03-23T11:22:37;5.55;;;3.85;;
59442;SDS011;45247;47.466;19.004;2024-03-23T11:25:12;7.53;;;3.88;;
59442;SDS011;45247;47.466;19.004;2024-03-23T11:27:43;9.88;;;3.80;;
59442;SDS011;45247;47.466;19.004;2024-03-23T11:30:13;7.45;;;3.42;;
59442;SDS011;45247;47.466;19.004;2024-03-23T11:32:43;7.22;;;3.95;;
59442;SDS011;45247;47.466;19.004;2024-03-23T11:35:10;7.82;;;4.00;;
59442;SDS011;45247;47.466;19.004;2024-03-23T11:38:04;14.10;;;4.10;;
59442;SDS011;45247;47.466;19.004;2024-03-23T11:40:31;10.60;;;4.10;;
59442;SDS011;45247;47.466;19.004;2024-03-23T11:43:00;11.65;;;4.47;;
59442;SDS011;45247;47.466;19.004;2024-03-23T11:45:29;10.40;;;4.00;;
59442;SDS011;45247;47.466;19.004;2024-03-23T11:48:09;7.03;;;3.47;;
59442;SDS011;45247;47.466;19.004;2024-03-23T11:50:37;7.57;;;3.65;;
59442;SDS011;45247;47.466;19.004;2024-03-23T11:53:06;7.93;;;4.00;;
59442;SDS011;45247;47.466;19.004;2024-03-23T11:55:39;11.70;;;4.38;;
59442;SDS011;45247;47.466;19.004;2024-03-23T11:58:07;6.70;;;3.67;;
59442;SDS011;45247;47.466;19.004;2024-03-23T12:00:33;8.82;;;3.45;;
59442;SDS011;45247;47.466;19.004;2024-03-23T12:03:01;6.43;;;3.70;;
59442;SDS011;45247;47.466;19.004;2024-03-23T12:05:29;5.05;;;2.90;;
59442;SDS011;45247;47.466;19.004;2024-03-23T12:10:48;7.18;;;3.15;;
59442;SDS011;45247;47.466;19.004;2024-03-23T12:13:19;6.45;;;3.45;;
59442;SDS011;45247;47.466;19.004;2024-03-23T12:15:46;5.43;;;2.92;;
59442;SDS011;45247;47.466;19.004;2024-03-23T12:18:14;5.07;;;2.80;;
59442;SDS011;45247;47.466;19.004;2024-03-23T12:21:01;10.23;;;3.20;;
59442;SDS011;45247;47.466;19.004;2024-03-23T12:23:33;6.25;;;2.97;;
59442;SDS011;45247;47.466;19.004;2024-03-23T12:26:00;10.10;;;3.35;;
59442;SDS011;45247;47.466;19.004;2024-03-23T12:28:27;11.00;;;3.10;;
59442;SDS011;45247;47.466;19.004;2024-03-23T12:30:54;7.50;;;2.97;;
59442;SDS011;45247;47.466;19.004;2024-03-23T12:33:21;4.20;;;2.75;;
59442;SDS011;45247;47.466;19.004;2024-03-23T12:35:47;4.68;;;2.65;;
59442;SDS011;45247;47.466;19.004;2024-03-23T12:38:16;9.40;;;2.70;;
59442;SDS011;45247;47.466;19.004;2024-03-23T12:40:45;7.32;;;2.83;;
59442;SDS011;45247;47.466;19.004;2024-03-23T12:43:13;5.32;;;2.72;;
59442;SDS011;45247;47.466;19.004;2024-03-23T12:45:39;5.45;;;3.28;;
59442;SDS011;45247;47.466;19.004;2024-03-23T12:48:07;6.55;;;2.78;;
59442;SDS011;45247;47.466;19.004;2024-03-23T12:50:33;11.07;;;2.90;;
59442;SDS011;45247;47.466;19.004;2024-03-23T12:53:00;6.47;;;2.83;;
59442;SDS011;45247;47.466;19.004;2024-03-23T12:55:28;5.97;;;2.78;;
59442;SDS011;45247;47.466;19.004;2024-03-23T12:57:55;5.35;;;2.42;;
59442;SDS011;45247;47.466;19.004;2024-03-23T13:00:22;5.63;;;2.67;;
59442;SDS011;45247;47.466;19.004;2024-03-23T13:02:49;6.97;;;3.38;;
59442;SDS011;45247;47.466;19.004;2024-03-23T13:05:15;4.93;;;2.88;;
59442;SDS011;45247;47.466;19.004;2024-03-23T13:07:42;6.20;;;2.67;;
59442;SDS011;45247;47.466;19.004;2024-03-23T13:10:08;6.32;;;2.55;;
59442;SDS011;45247;47.466;19.004;2024-03-23T13:12:37;4.80;;;2.90;;
59442;SDS011;45247;47.466;19.004;2024-03-23T13:15:04;4.82;;;2.63;;
59442;SDS011;45247;47.466;19.004;2024-03-23T13:17:31;3.72;;;2.33;;
59442;SDS011;45247;47.466;19.004;2024-03-23T13:19:58;5.18;;;2.88;;
59442;SDS011;45247;47.466;19.004;2024-03-23T13:22:25;5.38;;;2.42;;
59442;SDS011;45247;47.466;19.004;2024-03-23T13:24:51;4.72;;;2.50;;
59442;SDS011;45247;47.466;19.004;2024-03-23T13:27:18;5.25;;;2.35;;
59442;SDS011;45247;47.466;19.004;2024-03-23T13:29:46;4.63;;;2.55;;
59442;SDS011;45247;47.466;19.004;2024-03-23T13:32:13;5.72;;;2.30;;
59442;SDS011;45247;47.466;19.004;2024-03-23T13:34:40;6.57;;;2.67;;
59442;SDS011;45247;47.466;19.004;2024-03-23T13:37:07;6.82;;;2.58;;
59442;SDS011;45247;47.466;19.004;2024-03-23T13:39:33;4.95;;;2.60;;
59442;SDS011;45247;47.466;19.004;2024-03-23T13:42:00;5.05;;;2.47;;
59442;SDS011;45247;47.466;19.004;2024-03-23T13:44:26;4.93;;;2.22;;
59442;SDS011;45247;47.466;19.004;2024-03-23T13:46:55;4.78;;;2.50;;
59442;SDS011;45247;47.466;19.004;2024-03-23T13:49:25;5.10;;;2.60;;
59442;SDS011;45247;47.466;19.004;2024-03-23T13:51:54;6.60;;;3.00;;
59442;SDS011;45247;47.466;19.004;2024-03-23T13:54:22;4.38;;;2.58;;
59442;SDS011;45247;47.466;19.004;2024-03-23T13:56:49;5.35;;;2.60;;
59442;SDS011;45247;47.466;19.004;2024-03-23T13:59:16;4.93;;;3.00;;
59442;SDS011;45247;47.466;19.004;2024-03-23T14:01:43;6.63;;;3.00;;
59442;SDS011;45247;47.466;19.004;2024-03-23T14:04:12;4.85;;;2.67;;
59442;SDS011;45247;47.466;19.004;2024-03-23T14:06:42;4.32;;;2.42;;
59442;SDS011;45247;47.466;19.004;2024-03-23T14:09:10;5.20;;;2.50;;
59442;SDS011;45247;47.466;19.004;2024-03-23T14:11:37;6.00;;;2.50;;
59442;SDS011;45247;47.466;19.004;2024-03-23T14:14:04;9.00;;;2.85;;
59442;SDS011;45247;47.466;19.004;2024-03-23T14:16:31;5.97;;;2.65;;
59442;SDS011;45247;47.466;19.004;2024-03-23T14:18:57;4.22;;;2.53;;
59442;SDS011;45247;47.466;19.004;2024-03-23T14:21:28;4.25;;;2.30;;
59442;SDS011;45247;47.466;19.004;2024-03-23T14:23:55;7.15;;;2.65;;
59442;SDS011;45247;47.466;19.004;2024-03-23T14:26:22;9.18;;;2.35;;
59442;SDS011;45247;47.466;19.004;2024-03-23T14:28:49;4.97;;;2.25;;
59442;SDS011;45247;47.466;19.004;2024-03-23T14:31:16;10.82;;;3.92;;
59442;SDS011;45247;47.466;19.004;2024-03-23T14:33:42;6.55;;;3.05;;
59442;SDS011;45247;47.466;19.004;2024-03-23T14:36:12;6.07;;;2.33;;
59442;SDS011;45247;47.466;19.004;2024-03-23T14:38:39;9.02;;;2.40;;
59442;SDS011;45247;47.466;19.004;2024-03-23T14:41:10;6.10;;;2.80;;
59442;SDS011;45247;47.466;19.004;2024-03-23T14:43:36;4.35;;;2.15;;
59442;SDS011;45247;47.466;19.004;2024-03-23T14:46:06;5.55;;;2.20;;
59442;SDS011;45247;47.466;19.004;2024-03-23T14:48:34;8.50;;;2.22;;
59442;SDS011;45247;47.466;19.004;2024-03-23T14:51:01;6.65;;;2.45;;
59442;SDS011;45247;47.466;19.004;2024-03-23T14:53:30;4.95;;;2.72;;
59442;SDS011;45247;47.466;19.004;2024-03-23T14:55:59;5.47;;;2.70;;
59442;SDS011;45247;47.466;19.004;2024-03-23T14:58:26;6.95;;;2.60;;
59442;SDS011;45247;47.466;19.004;2024-03-23T15:00:53;7.28;;;2.92;;
59442;SDS011;45247;47.466;19.004;2024-03-23T15:03:25;6.32;;;2.72;;
59442;SDS011;45247;47.466;19.004;2024-03-23T15:05:53;6.05;;;3.03;;
59442;SDS011;45247;47.466;19.004;2024-03-23T15:08:20;5.25;;;2.95;;
59442;SDS011;45247;47.466;19.004;2024-03-23T15:10:47;7.18;;;3.00;;
59442;SDS011;45247;47.466;19.004;2024-03-23T15:13:15;7.70;;;2.60;;
59442;SDS011;45247;47.466;19.004;2024-03-23T15:15:43;7.28;;;2.85;;
59442;SDS011;45247;47.466;19.004;2024-03-23T15:18:10;8.70;;;2.90;;